Time;durP1;ratioP1;P1;durP2;ratioP2;P2;SDS_P1;SDS_P2;PMS_P1;PMS_P2;Temp;Humidity;BMP_temperature;BMP_pressure;BME280_temperature;BME280_humidity;BME280_pressure;Samples;Min_cycle;Max_cycle;Signal;HPM_P1;HPM_P2
2021/08/19 05:50:00;;;;;;;;;;;;;;;17.19;76.22;99853.47;1628204;54;20080;-76
2021/08/19 05:51:33;;;;;;;;;;;;;;;17.21;76.43;99850.56;1622890;54;19998;-74
2021/08/19 05:53:07;;;;;;;;;;;;;;;17.18;76.84;99846.38;1623313;54;19946;-76
2021/08/19 05:54:40;;;;;;;;;;;;;;;17.16;77.00;99843.03;1622901;54;19946;-75
2021/08/19 05:56:14;;;;;;;;;;;;;;;17.17;76.78;99854.66;1622640;54;19946;-76
2021/08/19 05:57:48;;;;;;;;;;;;;;;17.20;76.76;99852.41;1622790;54;19981;-76
2021/08/19 05:59:21;;;;;;;;;;;;;;;17.26;76.71;99851.66;1622792;47;19947;-75
2021/08/19 06:00:54;;;;;;;;;;;;;;;17.31;76.47;99851.91;1623510;47;19957;-76
2021/08/19 06:02:27;;;;;;;;;;;;;;;17.39;76.35;99850.09;1623335;47;20045;-74
2021/08/19 06:04:01;;;;;;;;;;;;;;;17.35;76.50;99862.31;1622774;47;19946;-74
2021/08/19 06:05:38;;;;;;;;;;;;;;;17.33;76.55;99856.28;1622970;47;19952;-77
2021/08/19 06:07:14;;;;;;;;;;;;;;;17.33;76.58;99853.56;1622560;47;19947;-74
2021/08/19 06:08:47;;;;;;;;;;;;;;;17.29;76.79;99853.13;1622905;47;19947;-76
2021/08/19 06:10:20;;;;;;;;;;;;;;;17.25;77.02;99860.78;1622668;47;19946;-77
2021/08/19 06:11:53;;;;;;;;;;;;;;;17.25;77.14;99858.09;1622921;54;19954;-77
2021/08/19 06:13:27;;;;;;;;;;;;;;;17.30;76.72;99855.63;1622391;47;20473;-78
2021/08/19 06:15:00;;;;;;;;;;;;;;;17.33;76.59;99853.56;1622667;54;19950;-77
2021/08/19 06:16:33;;;;;;;;;;;;;;;17.36;76.88;99853.19;1622871;39;20518;-77
2021/08/19 06:18:06;;;;;;;;;;;;;;;17.41;76.35;99853.44;1621876;47;20472;-77
2021/08/19 06:19:40;;;;;;;;;;;;;;;17.46;76.39;99857.22;1622687;54;19951;-78
2021/08/19 06:21:16;;;;;;;;;;;;;;;17.53;76.27;99842.94;1623072;54;19946;-76
2021/08/19 06:22:51;;;;;;;;;;;;;;;17.58;75.69;99854.00;1623042;52;19956;-77
2021/08/19 06:24:24;;;;;;;;;;;;;;;17.59;75.72;99850.28;1623049;54;19981;-76
2021/08/19 06:25:57;;;;;;;;;;;;;;;17.59;75.35;99853.78;1624226;54;19946;-77
2021/08/19 06:27:31;;;;;;;;;;;;;;;17.57;75.67;99853.16;1622263;47;19962;-76
2021/08/19 06:29:04;;;;;;;;;;;;;;;17.60;75.28;99855.47;1623267;47;20046;-76
2021/08/19 06:30:37;;;;;;;;;;;;;;;17.67;75.02;99854.69;1622707;54;19953;-77
2021/08/19 06:32:10;;;;;;;;;;;;;;;17.68;75.08;99851.81;1622497;54;19957;-76
2021/08/19 06:33:44;;;;;;;;;;;;;;;17.74;74.80;99858.28;1622419;47;20044;-77
2021/08/19 06:35:17;;;;;;;;;;;;;;;17.77;74.69;99855.19;1622709;39;20306;-76
2021/08/19 06:36:54;;;;;;;;;;;;;;;17.80;74.59;99854.78;1622593;54;20014;-76
2021/08/19 06:38:27;;;;;;;;;;;;;;;17.80;74.32;99856.66;1621583;47;20065;-76
2021/08/19 06:40:01;;;;;;;;;;;;;;;17.83;74.20;99851.69;1623234;39;20356;-78
2021/08/19 06:41:34;;;;;;;;;;;;;;;17.86;74.04;99845.88;1621818;54;20062;-78
2021/08/19 06:43:07;;;;;;;;;;;;;;;17.88;73.74;99851.94;1622152;39;20347;-76
2021/08/19 06:44:41;;;;;;;;;;;;;;;17.89;74.07;99844.69;1621270;54;19939;-77
2021/08/19 06:46:14;;;;;;;;;;;;;;;17.90;73.96;99849.06;1620395;47;19990;-78
2021/08/19 06:47:47;;;;;;;;;;;;;;;17.93;73.61;99852.19;1622141;39;20433;-75
2021/08/19 06:49:21;;;;;;;;;;;;;;;17.99;73.89;99850.59;1621671;54;19947;-76
2021/08/19 06:50:54;;;;;;;;;;;;;;;18.01;73.61;99843.09;1619856;51;19977;-75
2021/08/19 06:52:30;;;;;;;;;;;;;;;18.04;73.66;99847.31;1620959;47;20492;-77
2021/08/19 06:54:04;;;;;;;;;;;;;;;18.07;73.57;99846.88;1621914;54;19957;-76
2021/08/19 06:55:37;;;;;;;;;;;;;;;18.13;73.29;99854.22;1622644;54;19974;-77
2021/08/19 06:57:10;;;;;;;;;;;;;;;18.26;73.15;99848.03;1625529;54;20034;-76
2021/08/19 06:58:44;;;;;;;;;;;;;;;18.35;72.79;99846.84;1623878;54;19953;-78
2021/08/19 07:00:17;;;;;;;;;;;;;;;18.39;72.45;99849.97;1621874;49;19958;-77
2021/08/19 07:01:51;;;;;;;;;;;;;;;18.37;72.39;99847.44;1622668;54;20845;-77
2021/08/19 07:03:26;;;;;;;;;;;;;;;18.46;72.47;99855.44;1622253;54;19988;-77
2021/08/19 07:04:59;;;;;;;;;;;;;;;18.54;71.99;99847.94;1623010;46;19950;-77
2021/08/19 07:06:33;;;;;;;;;;;;;;;18.56;71.85;99847.78;1621960;54;19947;-77
2021/08/19 07:08:09;;;;;;;;;;;;;;;18.44;71.91;99857.50;1622836;47;19950;-77
2021/08/19 07:09:42;;;;;;;;;;;;;;;18.38;72.13;99859.13;1621781;47;20540;-78
2021/08/19 07:11:15;;;;;;;;;;;;;;;18.32;72.03;99857.22;1622498;47;19953;-76
2021/08/19 07:12:48;;;;;;;;;;;;;;;18.36;72.27;99858.50;1622240;54;19950;-75
2021/08/19 07:14:22;;;;;;;;;;;;;;;18.48;71.64;99856.88;1622749;47;19957;-77
2021/08/19 07:15:55;;;;;;;;;;;;;;;18.52;71.50;99855.44;1622779;39;20340;-77
2021/08/19 07:17:28;;;;;;;;;;;;;;;18.50;71.51;99857.53;1622500;54;19956;-77
2021/08/19 07:19:01;;;;;;;;;;;;;;;18.52;71.41;99854.59;1623049;54;19970;-76
2021/08/19 07:20:35;;;;;;;;;;;;;;;18.59;71.18;99857.34;1622726;54;20042;-77
2021/08/19 07:22:08;;;;;;;;;;;;;;;18.57;70.90;99860.25;1623326;39;20357;-77
2021/08/19 07:23:46;;;;;;;;;;;;;;;18.61;71.12;99852.56;1623670;47;20049;-76
2021/08/19 07:25:21;;;;;;;;;;;;;;;18.69;70.56;99860.50;1625479;47;19950;-77
2021/08/19 07:26:54;;;;;;;;;;;;;;;18.77;70.46;99860.34;1624808;47;20078;-77
2021/08/19 07:28:27;;;;;;;;;;;;;;;18.83;70.16;99854.09;1623420;47;20023;-76
2021/08/19 07:30:01;;;;;;;;;;;;;;;18.85;69.89;99857.44;1623518;47;19957;-77
2021/08/19 07:31:35;;;;;;;;;;;;;;;18.83;70.07;99853.28;1624130;47;20402;-76
2021/08/19 07:33:09;;;;;;;;;;;;;;;18.76;70.02;99858.66;1622917;54;19956;-75
2021/08/19 07:34:42;;;;;;;;;;;;;;;18.80;69.85;99849.06;1622877;39;20336;-75
2021/08/19 07:36:15;;;;;;;;;;;;;;;18.76;69.57;99858.66;1622406;54;19947;-77
2021/08/19 07:37:50;;;;;;;;;;;;;;;18.76;69.59;99855.94;1622446;46;19957;-76
2021/08/19 07:39:26;;;;;;;;;;;;;;;18.75;69.52;99856.16;1622609;54;20418;-76
2021/08/19 07:40:59;;;;;;;;;;;;;;;18.76;69.55;99857.81;1622270;54;20034;-75
2021/08/19 07:42:32;;;;;;;;;;;;;;;18.73;69.70;99859.06;1622607;47;19952;-78
2021/08/19 07:44:06;;;;;;;;;;;;;;;18.76;69.86;99863.22;1622687;49;19947;-77
2021/08/19 07:45:39;;;;;;;;;;;;;;;18.81;69.31;99861.56;1622711;54;19971;-77
2021/08/19 07:47:13;;;;;;;;;;;;;;;18.90;69.33;99858.69;1623588;47;19953;-77
2021/08/19 07:48:46;;;;;;;;;;;;;;;18.94;68.80;99858.09;1622712;47;20437;-76
2021/08/19 07:50:20;;;;;;;;;;;;;;;18.96;68.51;99866.03;1623265;54;19981;-76
2021/08/19 07:51:53;;;;;;;;;;;;;;;18.93;68.53;99870.00;1623201;54;19947;-78
2021/08/19 07:53:26;;;;;;;;;;;;;;;18.93;68.61;99867.28;1623032;54;20449;-77
2021/08/19 07:55:02;;;;;;;;;;;;;;;18.99;68.40;99865.63;1623220;54;19950;-78
2021/08/19 07:56:36;;;;;;;;;;;;;;;19.00;68.47;99861.88;1623033;54;19953;-77
2021/08/19 07:58:10;;;;;;;;;;;;;;;18.98;67.94;99862.09;1622583;54;20466;-76
2021/08/19 07:59:43;;;;;;;;;;;;;;;19.02;68.20;99852.53;1622575;54;19981;-77
2021/08/19 08:01:16;;;;;;;;;;;;;;;19.05;67.62;99858.53;1622586;54;19947;-76
2021/08/19 08:02:51;;;;;;;;;;;;;;;19.06;67.46;99869.19;1622601;54;19951;-78
2021/08/19 08:04:24;;;;;;;;;;;;;;;19.09;67.78;99855.22;1623017;47;19946;-79
2021/08/19 08:05:59;;;;;;;;;;;;;;;19.11;67.13;99869.41;1623910;47;19946;-75
2021/08/19 08:07:32;;;;;;;;;;;;;;;19.16;67.49;99864.22;1624171;47;20822;-77
2021/08/19 08:09:06;;;;;;;;;;;;;;;19.26;66.76;99865.69;1622991;54;20761;-77
2021/08/19 08:10:43;;;;;;;;;;;;;;;19.38;66.62;99852.34;1622447;54;19950;-77
2021/08/19 08:12:16;;;;;;;;;;;;;;;19.57;66.32;99853.38;1622404;54;19978;-76
2021/08/19 08:13:50;;;;;;;;;;;;;;;19.65;65.94;99853.19;1621572;39;20009;-76
2021/08/19 08:15:23;;;;;;;;;;;;;;;19.69;65.92;99854.44;1621553;47;19953;-78
2021/08/19 08:16:56;;;;;;;;;;;;;;;19.74;65.34;99849.19;1622378;39;20375;-78
2021/08/19 08:18:30;;;;;;;;;;;;;;;19.79;65.44;99849.44;1622918;39;20639;-77
2021/08/19 08:20:03;;;;;;;;;;;;;;;19.91;65.21;99844.22;1622203;47;20449;-77
2021/08/19 08:21:38;;;;;;;;;;;;;;;19.91;64.46;99851.53;1622428;47;19966;-77
2021/08/19 08:23:11;;;;;;;;;;;;;;;19.84;64.47;99848.78;1622075;47;19953;-79
2021/08/19 08:24:45;;;;;;;;;;;;;;;19.77;64.82;99853.41;1622120;54;19947;-77
2021/08/19 08:26:21;;;;;;;;;;;;;;;19.76;64.81;99849.84;1622410;54;19946;-78
2021/08/19 08:27:59;;;;;;;;;;;;;;;19.78;64.90;99849.66;1622240;54;20464;-77
2021/08/19 08:29:34;;;;;;;;;;;;;;;19.72;64.22;99851.31;1622369;54;19971;-77
2021/08/19 08:31:08;;;;;;;;;;;;;;;19.71;64.20;99852.34;1622184;54;19954;-79
2021/08/19 08:32:41;;;;;;;;;;;;;;;19.77;64.41;99846.09;1622418;47;19970;-77
2021/08/19 08:34:15;;;;;;;;;;;;;;;19.86;64.30;99843.19;1622301;47;19947;-79
2021/08/19 08:35:48;;;;;;;;;;;;;;;19.91;63.97;99840.69;1622287;47;19946;-76
2021/08/19 08:37:23;;;;;;;;;;;;;;;19.89;64.03;99845.47;1622192;47;19958;-77
2021/08/19 08:38:56;;;;;;;;;;;;;;;19.93;63.82;99838.59;1622233;47;19946;-77
2021/08/19 08:40:32;;;;;;;;;;;;;;;19.94;64.05;99843.81;1622289;54;19947;-77
2021/08/19 08:42:11;;;;;;;;;;;;;;;19.94;63.74;99851.09;1622314;47;20468;-78
2021/08/19 08:43:44;;;;;;;;;;;;;;;19.94;62.98;99845.66;1622237;47;19951;-77
2021/08/19 08:45:18;;;;;;;;;;;;;;;19.92;63.29;99851.31;1622247;47;19983;-77
2021/08/19 08:46:52;;;;;;;;;;;;;;;19.95;62.72;99852.75;1622319;47;19958;-78
2021/08/19 08:48:26;;;;;;;;;;;;;;;19.95;62.65;99845.47;1622373;47;19971;-77
2021/08/19 08:50:01;;;;;;;;;;;;;;;20.01;62.57;99843.78;1622526;47;20016;-78
2021/08/19 08:51:39;;;;;;;;;;;;;;;20.06;62.52;99845.88;1622672;39;20348;-75
2021/08/19 08:53:12;;;;;;;;;;;;;;;20.20;62.31;99839.34;1622568;54;20057;-77
2021/08/19 08:54:46;;;;;;;;;;;;;;;20.35;61.99;99843.72;1622020;54;19962;-76
2021/08/19 08:56:19;;;;;;;;;;;;;;;20.45;62.04;99846.78;1622031;47;20832;-75
2021/08/19 08:57:55;;;;;;;;;;;;;;;20.62;61.29;99849.03;1621635;54;20094;-79
2021/08/19 08:59:30;;;;;;;;;;;;;;;20.67;61.00;99838.34;1622265;39;20657;-76
2021/08/19 09:01:03;;;;;;;;;;;;;;;20.75;60.85;99843.53;1622227;47;19956;-77
2021/08/19 09:02:37;;;;;;;;;;;;;;;20.89;60.26;99838.88;1622118;47;20037;-75
2021/08/19 09:04:10;;;;;;;;;;;;;;;20.99;59.65;99838.41;1622218;54;19957;-76
2021/08/19 09:05:44;;;;;;;;;;;;;;;20.93;59.89;99840.13;1622293;54;19965;-76
2021/08/19 09:07:17;;;;;;;;;;;;;;;20.90;59.96;99845.97;1622249;46;19970;-75
2021/08/19 09:08:54;;;;;;;;;;;;;;;21.07;59.48;99843.59;1621895;54;19952;-76
2021/08/19 09:10:28;;;;;;;;;;;;;;;21.15;59.27;99839.78;1622814;39;20738;-75
2021/08/19 09:12:02;;;;;;;;;;;;;;;21.19;59.06;99839.13;1622456;39;20344;-76
2021/08/19 09:13:38;;;;;;;;;;;;;;;21.13;58.80;99837.25;1622602;47;19977;-76
2021/08/19 09:15:13;;;;;;;;;;;;;;;21.02;58.59;99844.25;1622164;47;19946;-75
2021/08/19 09:16:48;;;;;;;;;;;;;;;20.97;58.48;99844.03;1622354;54;19953;-77
2021/08/19 09:18:31;;;;;;;;;;;;;;;21.02;58.76;99840.66;1621214;47;19947;-74
2021/08/19 09:20:06;;;;;;;;;;;;;;;21.21;58.64;99838.88;1622229;47;19950;-77
2021/08/19 09:21:47;;;;;;;;;;;;;;;21.30;57.93;99840.28;1622660;47;19953;-76
2021/08/19 09:23:20;;;;;;;;;;;;;;;21.39;58.08;99842.72;1622621;54;19952;-77
2021/08/19 09:24:55;;;;;;;;;;;;;;;21.49;58.06;99848.50;1622442;47;19952;-78
2021/08/19 09:26:29;;;;;;;;;;;;;;;21.58;58.06;99846.34;1622116;54;19950;-78
2021/08/19 09:28:16;;;;;;;;;;;;;;;21.56;57.62;99846.56;1623025;47;19946;-79
2021/08/19 09:29:52;;;;;;;;;;;;;;;21.43;57.96;99850.22;1626214;54;20030;-78
2021/08/19 09:31:25;;;;;;;;;;;;;;;21.31;57.85;99844.66;1625870;54;20065;-77
2021/08/19 09:32:58;;;;;;;;;;;;;;;21.24;58.50;99848.47;1622381;54;20069;-79
2021/08/19 09:34:34;;;;;;;;;;;;;;;21.26;58.63;99836.31;1621996;54;19953;-77
2021/08/19 09:36:12;;;;;;;;;;;;;;;21.22;58.58;99845.16;1622544;39;20345;-77
2021/08/19 09:37:46;;;;;;;;;;;;;;;21.23;58.76;99839.50;1622636;47;19946;-77
2021/08/19 09:39:22;;;;;;;;;;;;;;;21.19;59.03;99838.28;1621433;54;19951;-76
2021/08/19 09:41:06;;;;;;;;;;;;;;;21.21;59.04;99836.16;1621570;54;19946;-76
2021/08/19 09:42:40;;;;;;;;;;;;;;;21.25;58.90;99844.72;1621484;47;19946;-78
2021/08/19 09:44:13;;;;;;;;;;;;;;;21.28;58.77;99842.38;1621410;47;20783;-78
2021/08/19 09:45:50;;;;;;;;;;;;;;;21.31;58.64;99832.94;1621769;39;20298;-77
2021/08/19 09:47:33;;;;;;;;;;;;;;;21.42;58.23;99831.41;1621094;54;19950;-76
2021/08/19 09:49:21;;;;;;;;;;;;;;;21.60;58.12;99849.69;1623186;39;20458;-75
2021/08/19 09:50:59;;;;;;;;;;;;;;;21.77;58.00;99834.47;1622256;47;19947;-77
2021/08/19 09:52:33;;;;;;;;;;;;;;;21.90;57.72;99827.25;1622486;52;19946;-76
2021/08/19 09:54:06;;;;;;;;;;;;;;;21.90;57.08;99833.53;1622665;39;20817;-74
2021/08/19 09:55:40;;;;;;;;;;;;;;;21.76;57.13;99837.41;1622379;50;20030;-78
2021/08/19 09:57:13;;;;;;;;;;;;;;;21.73;57.39;99835.13;1622366;39;20049;-76
2021/08/19 09:58:46;;;;;;;;;;;;;;;21.62;57.44;99834.00;1622135;54;20636;-76
2021/08/19 10:00:26;;;;;;;;;;;;;;;21.52;57.61;99839.91;1622240;54;19951;-76
2021/08/19 10:02:02;;;;;;;;;;;;;;;21.50;57.60;99851.00;1622203;54;20489;-78
2021/08/19 10:03:37;;;;;;;;;;;;;;;21.51;57.58;99838.25;1622421;54;19947;-76
2021/08/19 10:05:11;;;;;;;;;;;;;;;21.57;57.54;99833.81;1622272;47;20053;-76
2021/08/19 10:06:44;;;;;;;;;;;;;;;;;;1622344;54;19946;-75
2021/08/19 10:08:18;;;;;;;;;;;;;;;21.58;57.28;99841.75;1621964;47;19950;-77
2021/08/19 10:09:51;;;;;;;;;;;;;;;21.58;57.45;99835.47;1622280;54;19953;-77
2021/08/19 10:11:24;;;;;;;;;;;;;;;21.50;57.77;99836.56;1622013;47;19973;-76
2021/08/19 10:13:00;;;;;;;;;;;;;;;21.56;58.07;99838.41;1622306;47;19953;-77
2021/08/19 10:14:34;;;;;;;;;;;;;;;21.65;57.76;99836.28;1622388;54;19950;-78
2021/08/19 10:16:09;;;;;;;;;;;;;;;21.72;57.54;99837.03;1622705;39;20360;-75
2021/08/19 10:17:47;;;;;;;;;;;;;;;21.83;57.50;99837.38;1623324;54;19946;-77
2021/08/19 10:19:22;;;;;;;;;;;;;;;21.79;57.45;99832.34;1621867;54;19946;-77
2021/08/19 10:21:00;;;;;;;;;;;;;;;21.84;57.08;99833.59;1622263;54;19965;-76
2021/08/19 10:22:36;;;;;;;;;;;;;;;21.77;57.62;99830.94;1621432;47;19951;-77
2021/08/19 10:24:11;;;;;;;;;;;;;;;21.69;57.98;99831.22;1622360;54;20042;-77
2021/08/19 10:25:47;;;;;;;;;;;;;;;21.75;57.78;99825.72;1620943;54;19947;-77
2021/08/19 10:27:21;;;;;;;;;;;;;;;21.85;57.30;99824.38;1623189;54;19950;-76
2021/08/19 10:28:56;;;;;;;;;;;;;;;21.86;57.23;99821.41;1621434;47;19951;-76
2021/08/19 10:30:29;;;;;;;;;;;;;;;21.99;57.31;99825.88;1621965;47;19969;-77
2021/08/19 10:32:03;;;;;;;;;;;;;;;22.04;56.46;99825.22;1621459;54;20577;-76
2021/08/19 10:33:48;;;;;;;;;;;;;;;21.99;56.74;99825.06;1623700;39;20360;-78
2021/08/19 10:35:27;;;;;;;;;;;;;;;22.02;56.60;99821.88;1622742;47;19954;-77
2021/08/19 10:37:01;;;;;;;;;;;;;;;21.91;56.65;99821.59;1622367;54;19953;-78
2021/08/19 10:38:34;;;;;;;;;;;;;;;21.89;56.82;99823.69;1621888;47;19950;-77
2021/08/19 10:40:31;;;;;;;;;;;;;;;21.94;56.52;99823.03;1621134;47;19974;-77
2021/08/19 10:42:04;;;;;;;;;;;;;;;22.04;56.19;99823.34;1622100;47;20006;-77
2021/08/19 10:43:38;;;;;;;;;;;;;;;22.03;55.86;99815.38;1621226;47;19946;-76
2021/08/19 10:45:26;;;;;;;;;;;;;;;21.96;56.41;99819.00;1621504;47;19946;-77
2021/08/19 10:46:57;;;;;;;;;;;;;;;21.96;56.34;99823.63;1621377;54;19951;-76
2021/08/19 10:48:30;;;;;;;;;;;;;;;21.97;56.57;99825.28;1622553;54;19946;-76
2021/08/19 10:50:18;;;;;;;;;;;;;;;22.01;56.48;99825.69;1621370;47;20445;-76
2021/08/19 10:51:54;;;;;;;;;;;;;;;21.99;55.92;99825.06;1623349;47;19952;-77
2021/08/19 10:53:31;;;;;;;;;;;;;;;22.05;55.98;99818.72;1622779;54;20042;-77
2021/08/19 10:55:17;;;;;;;;;;;;;;;22.08;55.56;99827.25;1622956;47;19946;-77
2021/08/19 10:56:50;;;;;;;;;;;;;;;22.11;55.43;99820.50;1622831;47;20051;-76
2021/08/19 10:58:25;;;;;;;;;;;;;;;22.17;55.14;99821.50;1622666;54;19946;-79
2021/08/19 10:59:56;;;;;;;;;;;;;;;22.29;54.61;99816.97;1622259;47;19947;-75
2021/08/19 11:01:29;;;;;;;;;;;;;;;22.38;55.05;99818.31;1621937;47;19996;-76
2021/08/19 11:03:03;;;;;;;;;;;;;;;22.54;54.64;99808.72;1624400;47;19946;-77
2021/08/19 11:04:43;;;;;;;;;;;;;;;22.69;54.34;99812.94;1623877;54;20041;-79
2021/08/19 11:06:18;;;;;;;;;;;;;;;22.78;53.88;99816.19;1627356;47;19966;-76
2021/08/19 11:07:55;;;;;;;;;;;;;;;22.63;54.34;99811.13;1629614;54;19973;-76
2021/08/19 11:09:28;;;;;;;;;;;;;;;22.52;54.19;99813.56;1628317;47;20524;-77
2021/08/19 11:11:02;;;;;;;;;;;;;;;22.45;54.17;99804.66;1626630;46;19981;-77
2021/08/19 11:12:36;;;;;;;;;;;;;;;22.31;54.44;99803.13;1628760;46;19999;-77
2021/08/19 11:14:12;;;;;;;;;;;;;;;22.27;54.85;99806.31;1622675;47;19983;-77
2021/08/19 11:15:48;;;;;;;;;;;;;;;22.27;54.96;99795.44;1621523;54;19973;-77
2021/08/19 11:17:22;;;;;;;;;;;;;;;22.20;54.84;99799.28;1621900;47;19998;-76
2021/08/19 11:18:55;;;;;;;;;;;;;;;22.32;54.61;99802.06;1621681;39;20550;-76
2021/08/19 11:20:30;;;;;;;;;;;;;;;22.35;54.21;99801.63;1622678;54;20037;-76
2021/08/19 11:22:06;;;;;;;;;;;;;;;22.38;54.00;99802.00;1622774;47;20489;-76
2021/08/19 11:23:43;;;;;;;;;;;;;;;22.38;54.00;99798.44;1622438;47;20562;-76
2021/08/19 11:25:22;;;;;;;;;;;;;;;22.37;53.77;99802.22;1622660;47;19956;-77
2021/08/19 11:27:03;;;;;;;;;;;;;;;22.42;53.82;99796.94;1623728;31;20441;-77
2021/08/19 11:28:35;;;;;;;;;;;;;;;22.56;53.69;99803.91;1622389;39;20475;-76
2021/08/19 11:30:09;;;;;;;;;;;;;;;22.56;53.31;99803.91;1623283;47;20564;-76
2021/08/19 11:31:43;;;;;;;;;;;;;;;22.59;53.59;99797.97;1622731;50;20459;-79
2021/08/19 11:33:17;;;;;;;;;;;;;;;22.58;53.26;99798.22;1624671;54;20531;-78
2021/08/19 11:34:51;;;;;;;;;;;;;;;22.56;53.20;99801.16;1628826;47;20103;-78
2021/08/19 11:36:25;;;;;;;;;;;;;;;22.67;53.25;99799.56;1628188;54;19962;-79
2021/08/19 11:38:10;;;;;;;;;;;;;;;22.77;53.35;99793.53;1625952;47;19946;-76
2021/08/19 11:39:45;;;;;;;;;;;;;;;22.93;52.88;99791.22;1623839;46;19956;-77
2021/08/19 11:41:21;;;;;;;;;;;;;;;22.93;53.04;99793.94;1623611;54;19953;-75
2021/08/19 11:42:54;;;;;;;;;;;;;;;22.99;53.08;99793.84;1622848;54;19950;-79
2021/08/19 11:44:28;;;;;;;;;;;;;;;23.12;52.50;99795.53;1623397;54;19950;-76
2021/08/19 11:46:06;;;;;;;;;;;;;;;23.15;52.11;99789.59;1625225;54;19946;-75
2021/08/19 11:47:39;;;;;;;;;;;;;;;23.18;52.09;99788.31;1624316;46;20073;-77
2021/08/19 11:49:14;;;;;;;;;;;;;;;23.16;51.96;99790.44;1623160;54;19950;-75
2021/08/19 11:50:53;;;;;;;;;;;;;;;23.21;51.76;99799.63;1624545;54;19953;-76
2021/08/19 11:52:26;;;;;;;;;;;;;;;23.28;51.54;99790.50;1625561;47;20033;-76
2021/08/19 11:53:58;;;;;;;;;;;;;;;23.39;51.55;99795.13;1625430;47;19950;-77
2021/08/19 11:55:36;;;;;;;;;;;;;;;23.41;51.36;99793.00;1623684;54;20437;-77
2021/08/19 11:57:10;;;;;;;;;;;;;;;23.26;51.62;99798.91;1624689;47;19953;-78
2021/08/19 11:58:43;;;;;;;;;;;;;;;23.26;51.84;99790.75;1624680;54;19946;-78
2021/08/19 12:00:16;;;;;;;;;;;;;;;23.32;51.58;99794.44;1625258;46;19987;-78
2021/08/19 12:01:50;;;;;;;;;;;;;;;23.24;52.09;99787.41;1625982;54;20441;-77
2021/08/19 12:03:21;;;;;;;;;;;;;;;23.13;52.36;99794.47;1626606;47;19950;-78
2021/08/19 12:05:03;;;;;;;;;;;;;;;23.08;52.37;99798.97;1626131;47;19947;-80
2021/08/19 12:06:36;;;;;;;;;;;;;;;23.05;52.43;99805.69;1625994;54;19946;-76
2021/08/19 12:08:10;;;;;;;;;;;;;;;22.97;52.45;99808.75;1626069;54;19946;-77
2021/08/19 12:09:44;;;;;;;;;;;;;;;22.93;52.73;99804.84;1626190;54;19953;-80
2021/08/19 12:11:21;;;;;;;;;;;;;;;22.92;52.77;99798.56;1626762;54;20069;-79
2021/08/19 12:12:55;;;;;;;;;;;;;;;22.85;52.78;99801.41;1624680;54;20573;-77
2021/08/19 12:14:29;;;;;;;;;;;;;;;22.88;53.01;99811.00;1624691;54;19991;-76
2021/08/19 12:16:02;;;;;;;;;;;;;;;22.81;52.58;99800.19;1625312;47;20513;-78
2021/08/19 12:17:36;;;;;;;;;;;;;;;22.74;52.95;99800.28;1626644;39;20531;-78
2021/08/19 12:19:10;;;;;;;;;;;;;;;22.72;52.82;99802.41;1624589;47;19946;-78
2021/08/19 12:20:44;;;;;;;;;;;;;;;22.71;53.14;99802.63;1623125;47;20030;-79
2021/08/19 12:22:17;;;;;;;;;;;;;;;22.64;52.98;99802.72;1623340;47;19950;-78
2021/08/19 12:23:51;;;;;;;;;;;;;;;22.63;53.52;99802.97;1624040;54;19950;-77
2021/08/19 12:25:24;;;;;;;;;;;;;;;22.62;53.55;99793.13;1623861;47;19966;-79
2021/08/19 12:27:07;;;;;;;;;;;;;;;22.71;53.37;99799.91;1625017;54;19950;-78
2021/08/19 12:28:40;;;;;;;;;;;;;;;22.81;52.97;99802.91;1624966;54;19946;-77
2021/08/19 12:30:13;;;;;;;;;;;;;;;22.83;52.76;99798.06;1626254;47;20006;-79
2021/08/19 12:31:48;;;;;;;;;;;;;;;22.90;52.32;99804.25;1624179;54;19954;-78
2021/08/19 12:33:30;;;;;;;;;;;;;;;22.81;52.68;99796.66;1622991;47;19983;-77
2021/08/19 12:35:04;;;;;;;;;;;;;;;22.83;52.38;99797.22;1622983;47;20041;-78
2021/08/19 12:36:37;;;;;;;;;;;;;;;22.92;52.46;99795.00;1622218;46;20812;-77
2021/08/19 12:38:11;;;;;;;;;;;;;;;23.13;52.29;99786.31;1622909;39;20309;-79
2021/08/19 12:39:49;;;;;;;;;;;;;;;23.32;51.91;99788.97;1622239;47;20016;-78
2021/08/19 12:41:23;;;;;;;;;;;;;;;23.51;51.42;99771.44;1621907;47;20069;-76
2021/08/19 12:43:07;;;;;;;;;;;;;;;23.61;50.87;99775.47;1621327;47;19966;-78
2021/08/19 12:44:41;;;;;;;;;;;;;;;23.64;51.16;99774.97;1622458;48;20518;-78
2021/08/19 12:46:16;;;;;;;;;;;;;;;23.67;50.90;99780.78;1622173;54;19950;-78
2021/08/19 12:47:51;;;;;;;;;;;;;;;23.63;51.01;99767.84;1622191;39;20049;-78
2021/08/19 12:49:28;;;;;;;;;;;;;;;23.75;50.92;99771.41;1621600;39;20269;-78
2021/08/19 12:51:16;;;;;;;;;;;;;;;23.78;50.66;99772.81;1622702;46;19946;-78
2021/08/19 12:52:49;;;;;;;;;;;;;;;23.83;50.70;99767.50;1621699;47;19950;-78
2021/08/19 12:54:20;;;;;;;;;;;;;;;23.76;50.69;99773.06;1622625;47;19950;-78
2021/08/19 12:55:58;;;;;;;;;;;;;;;23.74;50.17;99768.94;1621377;47;20042;-79
2021/08/19 12:57:32;;;;;;;;;;;;;;;23.59;50.74;99767.50;1622667;47;19947;-78
2021/08/19 12:59:08;;;;;;;;;;;;;;;23.62;50.84;99774.38;1622140;54;20591;-78
2021/08/19 13:00:41;;;;;;;;;;;;;;;23.57;50.69;99774.28;1621276;47;19946;-78
2021/08/19 13:02:14;;;;;;;;;;;;;;;23.52;50.88;99770.34;1622442;47;19946;-78
2021/08/19 13:03:47;;;;;;;;;;;;;;;23.46;50.35;99771.28;1621361;47;19947;-79
2021/08/19 13:05:22;;;;;;;;;;;;;;;23.46;50.21;99775.94;1622532;47;19946;-79
2021/08/19 13:06:55;;;;;;;;;;;;;;;23.46;50.60;99770.47;1621833;47;19985;-80
2021/08/19 13:08:29;;;;;;;;;;;;;;;23.50;49.86;99768.91;1622472;46;19970;-77
2021/08/19 13:10:02;;;;;;;;;;;;;;;23.50;50.03;99764.31;1621626;54;20303;-79
2021/08/19 13:11:36;;;;;;;;;;;;;;;23.47;50.21;99772.97;1622749;54;19970;-78
2021/08/19 13:13:09;;;;;;;;;;;;;;;23.40;50.48;99777.72;1623178;47;19951;-77
2021/08/19 13:14:45;;;;;;;;;;;;;;;23.40;50.63;99772.25;1622674;39;20376;-79
2021/08/19 13:16:18;;;;;;;;;;;;;;;23.41;50.62;99776.66;1622508;47;20556;-78
2021/08/19 13:17:52;;;;;;;;;;;;;;;23.41;50.90;99773.91;1622327;54;19946;-78
2021/08/19 13:19:25;;;;;;;;;;;;;;;23.38;50.74;99773.56;1622725;47;20387;-77
2021/08/19 13:21:00;;;;;;;;;;;;;;;23.31;50.95;99766.31;1621440;47;19957;-78
2021/08/19 13:22:33;;;;;;;;;;;;;;;23.36;51.04;99771.06;1622629;47;19966;-78
2021/08/19 13:24:07;;;;;;;;;;;;;;;23.35;51.03;99761.22;1621563;54;20037;-78
2021/08/19 13:25:41;;;;;;;;;;;;;;;23.29;50.92;99771.16;1621537;47;19946;-79
2021/08/19 13:27:15;;;;;;;;;;;;;;;23.24;51.29;99767.50;1622830;50;19986;-78
2021/08/19 13:28:48;;;;;;;;;;;;;;;23.20;51.23;99776.16;1621777;54;19969;-78
2021/08/19 13:30:24;;;;;;;;;;;;;;;23.13;51.12;99767.22;1622560;47;20037;-78
2021/08/19 13:31:58;;;;;;;;;;;;;;;23.12;51.68;99768.28;1621496;54;20466;-78
2021/08/19 13:33:31;;;;;;;;;;;;;;;23.05;51.83;99767.53;1622790;39;20669;-77
2021/08/19 13:35:04;;;;;;;;;;;;;;;23.06;51.82;99770.03;1621545;54;19947;-78
2021/08/19 13:36:39;;;;;;;;;;;;;;;23.05;51.72;99773.00;1621682;47;19947;-78
2021/08/19 13:38:12;;;;;;;;;;;;;;;23.06;51.47;99771.94;1621285;54;19947;-77
2021/08/19 13:39:46;;;;;;;;;;;;;;;22.98;51.92;99772.28;1623602;47;19946;-79
2021/08/19 13:41:19;;;;;;;;;;;;;;;22.88;52.32;99773.66;1621721;47;20503;-78
2021/08/19 13:42:52;;;;;;;;;;;;;;;22.84;52.74;99769.75;1622647;39;20326;-78
2021/08/19 13:44:26;;;;;;;;;;;;;;;22.82;52.61;99777.34;1622477;39;20602;-78
2021/08/19 13:46:02;;;;;;;;;;;;;;;22.78;52.87;99778.84;1622179;47;19950;-77
2021/08/19 13:47:37;;;;;;;;;;;;;;;22.83;52.82;99770.81;1623714;54;20019;-76
2021/08/19 13:49:10;;;;;;;;;;;;;;;22.85;53.17;99762.41;1621486;47;19946;-80
2021/08/19 13:50:43;;;;;;;;;;;;;;;22.95;53.20;99778.22;1622785;47;19953;-78
2021/08/19 13:52:16;;;;;;;;;;;;;;;23.00;52.75;99764.69;1621717;47;20459;-78
2021/08/19 13:53:50;;;;;;;;;;;;;;;23.05;52.80;99762.09;1622376;54;19950;-79
2021/08/19 13:55:23;;;;;;;;;;;;;;;23.02;53.06;99763.38;1621311;54;19957;-78
2021/08/19 13:56:58;;;;;;;;;;;;;;;23.09;52.68;99762.47;1622211;54;19946;-78
2021/08/19 13:58:31;;;;;;;;;;;;;;;23.14;52.63;99762.59;1621998;47;19950;-79
2021/08/19 14:00:04;;;;;;;;;;;;;;;23.11;52.91;99761.16;1622292;54;20042;-80
2021/08/19 14:01:40;;;;;;;;;;;;;;;23.08;52.90;99766.25;1622659;47;19958;-78
2021/08/19 14:03:15;;;;;;;;;;;;;;;23.11;52.85;99760.31;1622442;47;20046;-79